createdAt,value
2023-08-30T00:00:39.577Z,13.18
2023-08-30T00:03:09.450Z,13.15
2023-08-30T00:05:41.092Z,13.16
2023-08-30T00:08:10.152Z,13.13
2023-08-30T00:10:39.042Z,13.13
2023-08-30T00:13:07.664Z,13.11
2023-08-30T00:15:35.960Z,13.11
2023-08-30T00:18:05.136Z,13.11
2023-08-30T00:20:35.119Z,13.11
2023-08-30T00:23:04.413Z,13.11
2023-08-30T00:25:32.645Z,13.12
2023-08-30T00:28:00.850Z,13.14
2023-08-30T00:30:29.575Z,13.16
2023-08-30T00:32:57.875Z,13.13
2023-08-30T00:35:26.282Z,13.13
2023-08-30T00:37:55.989Z,13.16
2023-08-30T00:40:25.078Z,13.12
2023-08-30T00:42:53.848Z,13.13
2023-08-30T00:45:22.001Z,13.13
2023-08-30T00:47:50.657Z,13.15
2023-08-30T00:50:20.207Z,13.15
2023-08-30T00:52:48.668Z,13.16
2023-08-30T00:55:18.723Z,13.16
2023-08-30T00:57:48.604Z,13.17
2023-08-30T01:00:18.149Z,13.17
2023-08-30T01:02:47.258Z,13.16
2023-08-30T01:05:16.092Z,13.16
2023-08-30T01:07:45.239Z,13.16
2023-08-30T01:10:13.613Z,13.17
2023-08-30T01:12:47.892Z,13.18
2023-08-30T01:15:22.177Z,13.19
2023-08-30T01:17:52.858Z,13.19
2023-08-30T01:20:23.474Z,13.20
2023-08-30T01:23:03.102Z,13.22
2023-08-30T01:25:35.370Z,13.22
2023-08-30T01:28:08.393Z,13.21
2023-08-30T01:30:39.872Z,13.23
2023-08-30T01:33:09.926Z,13.24
2023-08-30T01:35:38.766Z,13.24
2023-08-30T01:38:10.798Z,13.24
2023-08-30T01:40:41.890Z,13.23
2023-08-30T01:43:12.988Z,13.24
2023-08-30T01:45:44.342Z,13.24
2023-08-30T01:48:14.992Z,13.24
2023-08-30T01:50:45.254Z,13.24
2023-08-30T01:53:15.509Z,13.26
2023-08-30T01:55:44.974Z,13.25
2023-08-30T01:58:14.631Z,13.25
2023-08-30T02:00:44.450Z,13.24
2023-08-30T02:03:14.214Z,13.23
2023-08-30T02:06:00.486Z,13.23
2023-08-30T02:08:37.732Z,13.23
2023-08-30T02:11:10.039Z,13.25
2023-08-30T02:13:41.911Z,13.27
2023-08-30T02:16:11.861Z,13.28
2023-08-30T02:18:40.907Z,13.32
2023-08-30T02:21:09.366Z,13.32
2023-08-30T02:23:37.868Z,13.33
2023-08-30T02:26:06.308Z,13.33
2023-08-30T02:28:35.085Z,13.34
2023-08-30T02:31:04.683Z,13.34
2023-08-30T02:33:32.879Z,13.35
2023-08-30T02:36:01.050Z,13.37
2023-08-30T02:38:29.333Z,13.36
2023-08-30T02:40:57.761Z,13.33
2023-08-30T02:43:26.537Z,13.37
2023-08-30T02:45:54.939Z,13.37
2023-08-30T02:48:24.729Z,13.41
2023-08-30T02:50:52.880Z,13.40
2023-08-30T02:53:21.546Z,13.41
2023-08-30T02:55:50.077Z,13.45
2023-08-30T02:58:18.304Z,13.48
2023-08-30T03:00:46.651Z,13.51
2023-08-30T03:03:15.200Z,13.53
2023-08-30T03:05:44.933Z,13.53
2023-08-30T03:08:13.432Z,13.55
2023-08-30T03:10:41.764Z,13.56
2023-08-30T03:13:10.799Z,13.55
2023-08-30T03:15:39.237Z,13.56
2023-08-30T03:18:07.997Z,13.59
2023-08-30T03:20:36.465Z,13.60
2023-08-30T03:23:06.291Z,13.61
2023-08-30T03:25:35.523Z,13.64
2023-08-30T03:28:04.390Z,13.66
2023-08-30T03:30:33.093Z,13.67
2023-08-30T03:33:01.356Z,13.68
2023-08-30T03:35:29.613Z,13.68
2023-08-30T03:37:58.170Z,13.73
2023-08-30T03:40:28.894Z,13.76
2023-08-30T03:42:56.970Z,13.72
2023-08-30T03:45:25.155Z,13.73
2023-08-30T03:47:54.445Z,13.71
2023-08-30T03:50:22.664Z,13.71
2023-08-30T03:52:50.869Z,13.74
2023-08-30T03:55:19.200Z,13.79
2023-08-30T03:57:48.965Z,13.84
2023-08-30T04:00:17.348Z,13.80
2023-08-30T04:02:46.371Z,13.83
2023-08-30T04:05:14.948Z,13.81
2023-08-30T04:07:43.273Z,13.81
2023-08-30T04:10:11.706Z,13.81
2023-08-30T04:12:40.324Z,13.80
2023-08-30T04:15:11.724Z,13.79
2023-08-30T04:17:39.917Z,13.78
2023-08-30T04:20:11.611Z,13.79
2023-08-30T04:22:39.813Z,13.82
2023-08-30T04:25:10.395Z,13.81
2023-08-30T04:27:38.712Z,13.82
2023-08-30T04:30:08.191Z,13.82
2023-08-30T04:32:38.026Z,13.82
2023-08-30T04:35:06.469Z,13.84
2023-08-30T04:37:34.576Z,13.85
2023-08-30T04:40:04.628Z,13.86
2023-08-30T04:42:32.951Z,13.86
2023-08-30T04:45:01.928Z,13.87
2023-08-30T04:47:30.501Z,13.92
2023-08-30T04:50:01.028Z,13.91
2023-08-30T04:52:29.686Z,13.92
2023-08-30T04:54:59.593Z,13.92
2023-08-30T04:57:29.453Z,13.95
2023-08-30T05:00:00.807Z,13.97
2023-08-30T05:02:29.172Z,13.97
2023-08-30T05:05:09.464Z,13.98
2023-08-30T05:07:37.780Z,13.98
2023-08-30T05:10:07.364Z,14.05
2023-08-30T05:12:36.491Z,14.12
2023-08-30T05:15:06.191Z,14.16
2023-08-30T05:17:37.930Z,14.22
2023-08-30T05:20:09.616Z,14.27
2023-08-30T05:22:37.947Z,14.34
2023-08-30T05:25:06.959Z,14.36
2023-08-30T05:27:35.472Z,14.38
2023-08-30T05:30:04.349Z,14.47
2023-08-30T05:32:33.443Z,14.47
2023-08-30T05:35:21.690Z,14.52
2023-08-30T05:38:08.155Z,14.50
2023-08-30T05:41:02.377Z,14.61
2023-08-30T05:43:31.577Z,14.57
2023-08-30T05:46:03.729Z,14.60
2023-08-30T05:48:33.527Z,14.68
2023-08-30T05:51:03.920Z,14.68
2023-08-30T05:53:32.489Z,14.65
2023-08-30T05:56:01.520Z,14.82
2023-08-30T05:58:30.667Z,14.87
2023-08-30T06:01:01.096Z,15.00
2023-08-30T06:03:30.950Z,15.16
2023-08-30T06:05:59.578Z,15.26
2023-08-30T06:08:29.896Z,15.25
2023-08-30T06:10:58.212Z,15.26
2023-08-30T06:13:26.555Z,15.32
2023-08-30T06:15:55.328Z,15.38
2023-08-30T06:18:23.638Z,15.40
2023-08-30T06:20:52.081Z,15.48
2023-08-30T06:23:21.137Z,15.46
2023-08-30T06:25:56.976Z,15.57
2023-08-30T06:28:25.759Z,15.72
2023-08-30T06:30:54.298Z,15.91
2023-08-30T06:33:22.429Z,15.79
2023-08-30T06:35:51.778Z,16.06
2023-08-30T06:38:20.036Z,16.17
2023-08-30T06:40:48.666Z,16.17
2023-08-30T06:43:19.527Z,16.21
2023-08-30T06:45:48.425Z,16.37
2023-08-30T06:48:16.713Z,16.39
2023-08-30T06:50:44.920Z,16.30
2023-08-30T06:53:13.080Z,16.21
2023-08-30T06:55:41.296Z,16.37
2023-08-30T06:58:09.943Z,16.64
2023-08-30T07:00:39.901Z,16.71
2023-08-30T07:03:08.402Z,16.76
2023-08-30T07:05:36.749Z,17.01
2023-08-30T07:08:05.424Z,16.77
2023-08-30T07:10:35.973Z,16.74
2023-08-30T07:13:05.343Z,16.95
2023-08-30T07:15:35.360Z,16.85
2023-08-30T07:18:05.494Z,17.07
2023-08-30T07:20:33.856Z,17.26
2023-08-30T07:23:02.565Z,17.08
2023-08-30T07:25:31.824Z,17.36
2023-08-30T07:28:00.080Z,17.54
2023-08-30T07:30:29.316Z,17.60
2023-08-30T07:32:58.232Z,18.00
2023-08-30T07:35:27.859Z,18.09
2023-08-30T07:37:56.124Z,17.76
2023-08-30T07:40:27.574Z,17.99
2023-08-30T07:42:59.555Z,18.00
2023-08-30T07:45:28.747Z,18.25
2023-08-30T07:47:57.404Z,18.19
2023-08-30T07:50:27.109Z,18.54
2023-08-30T07:52:55.233Z,18.20
2023-08-30T07:55:23.586Z,18.52
2023-08-30T07:57:51.718Z,18.62
2023-08-30T08:00:20.313Z,18.89
2023-08-30T08:02:48.703Z,19.11
2023-08-30T08:05:17.781Z,18.98
2023-08-30T08:07:47.481Z,19.02
2023-08-30T08:10:15.767Z,19.47
2023-08-30T08:12:44.211Z,18.91
2023-08-30T08:15:12.761Z,19.01
2023-08-30T08:17:40.978Z,19.09
2023-08-30T08:20:09.945Z,19.61
2023-08-30T08:22:40.045Z,19.32
2023-08-30T08:25:11.706Z,19.73
2023-08-30T08:27:40.220Z,19.67
2023-08-30T08:30:10.580Z,19.65
2023-08-30T08:32:38.978Z,19.41
2023-08-30T08:35:08.320Z,19.25
2023-08-30T08:37:36.826Z,19.79
2023-08-30T08:40:09.653Z,19.38
2023-08-30T08:42:40.075Z,18.90
2023-08-30T08:45:11.020Z,18.85
2023-08-30T08:47:39.935Z,19.33
2023-08-30T08:50:09.077Z,19.42
2023-08-30T08:52:44.206Z,19.50
2023-08-30T08:55:23.578Z,19.89
2023-08-30T08:57:53.423Z,20.22
2023-08-30T09:00:21.815Z,20.84
2023-08-30T09:02:52.483Z,21.19
2023-08-30T09:05:21.676Z,20.73
2023-08-30T09:07:54.426Z,20.96
2023-08-30T09:10:23.463Z,20.84
2023-08-30T09:12:53.235Z,20.90
2023-08-30T09:15:22.596Z,20.50
2023-08-30T09:17:51.172Z,20.61
2023-08-30T09:20:21.821Z,20.39
2023-08-30T09:22:51.663Z,20.35
2023-08-30T09:25:26.501Z,20.39
2023-08-30T09:28:01.658Z,20.11
2023-08-30T09:30:30.663Z,20.50
2023-08-30T09:33:03.894Z,20.32
2023-08-30T09:35:32.176Z,20.29
2023-08-30T09:38:00.396Z,21.09
2023-08-30T09:40:30.182Z,20.86
2023-08-30T09:43:12.812Z,21.13
2023-08-30T09:45:42.560Z,21.23
2023-08-30T09:48:12.230Z,21.29
2023-08-30T09:50:44.059Z,21.78
2023-08-30T09:53:14.254Z,21.45
2023-08-30T09:55:45.087Z,21.14
2023-08-30T09:58:17.347Z,21.50
2023-08-30T10:00:48.153Z,21.06
2023-08-30T10:03:30.532Z,21.42
2023-08-30T10:06:04.081Z,21.95
2023-08-30T10:08:32.659Z,22.27
2023-08-30T10:11:02.921Z,22.71
2023-08-30T10:13:35.803Z,23.27
2023-08-30T10:16:06.550Z,22.48
2023-08-30T10:18:43.671Z,22.92
2023-08-30T10:21:20.669Z,23.04
2023-08-30T10:23:52.888Z,23.31
2023-08-30T10:26:21.998Z,23.56
2023-08-30T10:28:53.101Z,24.17
2023-08-30T10:31:21.473Z,23.38
2023-08-30T10:33:51.112Z,24.00
2023-08-30T10:36:24.417Z,23.25
2023-08-30T10:38:54.471Z,23.66
2023-08-30T10:41:24.049Z,23.97
2023-08-30T10:43:59.859Z,24.75
2023-08-30T10:46:35.758Z,24.89
2023-08-30T10:49:12.143Z,25.30
2023-08-30T10:51:41.833Z,24.86
2023-08-30T10:54:14.767Z,25.16
2023-08-30T10:56:50.348Z,25.20
2023-08-30T10:59:21.139Z,25.67
2023-08-30T11:01:50.576Z,25.40
2023-08-30T11:04:20.133Z,26.35
2023-08-30T11:06:50.052Z,26.45
2023-08-30T11:09:23.101Z,26.51
2023-08-30T11:11:56.130Z,27.06
2023-08-30T11:14:25.926Z,26.38
2023-08-30T11:16:54.139Z,25.52
2023-08-30T11:19:23.425Z,24.82
2023-08-30T11:21:51.659Z,24.77
2023-08-30T11:24:20.242Z,24.16
2023-08-30T11:26:49.777Z,23.82
2023-08-30T11:29:18.046Z,23.38
2023-08-30T11:31:48.317Z,24.57
2023-08-30T11:34:16.585Z,23.80
2023-08-30T11:36:44.878Z,23.93
2023-08-30T11:39:13.509Z,23.94
2023-08-30T11:41:42.043Z,24.22
2023-08-30T11:44:10.941Z,24.98
2023-08-30T11:46:39.256Z,25.29
2023-08-30T11:49:09.424Z,24.41
2023-08-30T11:51:39.150Z,24.63
2023-08-30T11:54:09.239Z,23.67
2023-08-30T11:56:38.254Z,23.13
2023-08-30T11:59:06.736Z,22.82
2023-08-30T12:01:35.692Z,22.83
2023-08-30T12:04:12.874Z,22.49
2023-08-30T12:06:41.076Z,22.59
2023-08-30T12:09:14.526Z,22.71
2023-08-30T12:11:43.782Z,22.93
2023-08-30T12:14:12.534Z,22.84
2023-08-30T12:16:42.200Z,22.70
2023-08-30T12:19:13.358Z,23.89
2023-08-30T12:21:42.894Z,24.43
2023-08-30T12:24:11.644Z,24.74
2023-08-30T12:26:40.310Z,25.13
2023-08-30T12:29:08.630Z,24.21
2023-08-30T12:31:37.018Z,23.81
2023-08-30T12:34:05.587Z,23.52
2023-08-30T12:36:35.524Z,23.12
2023-08-30T12:39:06.422Z,22.69
2023-08-30T12:41:34.859Z,22.47
2023-08-30T12:44:05.335Z,22.42
2023-08-30T12:46:36.317Z,21.87
2023-08-30T12:49:04.662Z,21.48
2023-08-30T12:51:33.467Z,22.14
2023-08-30T12:54:03.677Z,23.70
2023-08-30T12:56:32.198Z,24.67
2023-08-30T12:59:01.640Z,24.10
2023-08-30T13:01:31.070Z,23.49
2023-08-30T13:03:59.525Z,23.08
2023-08-30T13:06:27.801Z,23.51
2023-08-30T13:08:56.008Z,23.30
2023-08-30T13:11:27.799Z,24.41
2023-08-30T13:13:58.308Z,23.71
2023-08-30T13:16:26.938Z,23.94
2023-08-30T13:18:57.254Z,23.66
2023-08-30T13:21:35.263Z,24.37
2023-08-30T13:24:08.702Z,24.92
2023-08-30T13:26:38.898Z,25.73
2023-08-30T13:29:08.936Z,25.57
2023-08-30T13:31:37.200Z,26.37
2023-08-30T13:34:05.860Z,26.93
2023-08-30T13:36:34.535Z,27.62
2023-08-30T13:39:03.854Z,27.07
2023-08-30T13:41:31.968Z,27.02
2023-08-30T13:44:02.893Z,26.71
2023-08-30T13:46:31.537Z,26.95
2023-08-30T13:49:01.378Z,27.16
2023-08-30T13:51:29.613Z,27.09
2023-08-30T13:53:58.473Z,26.48
2023-08-30T13:56:28.800Z,27.27
2023-08-30T13:58:59.226Z,26.82
2023-08-30T14:01:29.033Z,26.60
2023-08-30T14:03:58.242Z,26.94
2023-08-30T14:06:26.475Z,26.61
2023-08-30T14:08:55.147Z,26.56
2023-08-30T14:11:23.812Z,26.12
2023-08-30T14:13:54.773Z,26.56
2023-08-30T14:16:26.625Z,26.64
2023-08-30T14:18:56.843Z,26.90
2023-08-30T14:21:25.092Z,26.66
2023-08-30T14:23:53.406Z,26.56
2023-08-30T14:26:22.248Z,27.06
2023-08-30T14:28:50.565Z,27.15
2023-08-30T14:31:19.661Z,27.25
2023-08-30T14:33:48.597Z,26.99
2023-08-30T14:36:18.248Z,26.23
2023-08-30T14:38:46.491Z,26.25
2023-08-30T14:41:17.286Z,26.84
2023-08-30T14:43:47.207Z,26.31
2023-08-30T14:46:22.537Z,25.45
2023-08-30T14:48:52.958Z,25.15
2023-08-30T14:51:23.073Z,25.50
2023-08-30T14:53:51.398Z,26.29
2023-08-30T14:56:20.046Z,26.27
2023-08-30T14:58:50.532Z,25.93
2023-08-30T15:01:18.878Z,26.08
2023-08-30T15:03:47.191Z,26.30
2023-08-30T15:06:16.407Z,26.03
2023-08-30T15:08:46.263Z,25.73
2023-08-30T15:11:14.881Z,25.81
2023-08-30T15:13:43.503Z,24.99
2023-08-30T15:16:13.111Z,24.58
2023-08-30T15:18:41.580Z,24.13
2023-08-30T15:21:09.958Z,23.48
2023-08-30T15:23:38.744Z,23.43
2023-08-30T15:26:09.123Z,23.83
2023-08-30T15:28:39.243Z,24.29
2023-08-30T15:31:07.937Z,25.01
2023-08-30T15:33:36.581Z,24.99
2023-08-30T15:36:05.724Z,23.99
2023-08-30T15:38:35.233Z,23.69
2023-08-30T15:41:04.194Z,23.16
2023-08-30T15:43:40.177Z,23.09
2023-08-30T15:46:08.719Z,23.02
2023-08-30T15:48:38.890Z,22.61
2023-08-30T15:51:16.351Z,22.67
2023-08-30T15:53:52.870Z,22.91
2023-08-30T15:56:21.757Z,22.79
2023-08-30T15:58:51.672Z,22.85
2023-08-30T16:01:21.756Z,22.80
2023-08-30T16:03:50.858Z,22.51
2023-08-30T16:06:19.708Z,22.42
2023-08-30T16:08:48.422Z,22.32
2023-08-30T16:11:18.155Z,22.40
2023-08-30T16:13:48.105Z,22.74
2023-08-30T16:16:17.757Z,22.86
2023-08-30T16:18:47.571Z,23.00
2023-08-30T16:21:15.798Z,22.96
2023-08-30T16:23:44.549Z,22.61
2023-08-30T16:26:12.811Z,22.60
2023-08-30T16:28:41.313Z,22.36
2023-08-30T16:31:13.741Z,22.20
2023-08-30T16:33:43.591Z,22.07
2023-08-30T16:36:12.146Z,21.83
2023-08-30T16:38:41.354Z,21.72
2023-08-30T16:41:10.644Z,21.62
2023-08-30T16:43:39.080Z,21.50
2023-08-30T16:46:09.758Z,21.34
2023-08-30T16:48:38.050Z,21.19
2023-08-30T16:51:09.648Z,21.07
2023-08-30T16:53:39.183Z,20.97
2023-08-30T16:56:07.467Z,20.82
2023-08-30T16:58:37.897Z,20.65
2023-08-30T17:01:10.975Z,20.61
2023-08-30T17:03:39.506Z,20.41
2023-08-30T17:06:09.208Z,20.40
2023-08-30T17:08:37.810Z,20.32
2023-08-30T17:11:06.725Z,20.32
2023-08-30T17:13:36.332Z,20.40
2023-08-30T17:16:08.874Z,20.28
2023-08-30T17:18:38.949Z,20.28
2023-08-30T17:21:11.004Z,20.18
2023-08-30T17:23:40.586Z,20.14
2023-08-30T17:26:10.334Z,20.08
2023-08-30T17:28:39.223Z,20.01
2023-08-30T17:31:08.804Z,19.93
2023-08-30T17:33:39.032Z,19.82
2023-08-30T17:36:10.380Z,19.81
2023-08-30T17:38:40.256Z,19.76
2023-08-30T17:41:12.484Z,19.79
2023-08-30T17:43:41.790Z,19.59
2023-08-30T17:46:10.242Z,19.48
2023-08-30T17:48:40.241Z,19.41
2023-08-30T17:51:10.042Z,19.30
2023-08-30T17:53:39.921Z,19.14
2023-08-30T17:56:09.400Z,19.03
2023-08-30T17:58:38.265Z,18.93
2023-08-30T18:01:10.821Z,18.80
2023-08-30T18:03:39.626Z,18.59
2023-08-30T18:06:13.849Z,18.45
2023-08-30T18:08:42.954Z,18.48
2023-08-30T18:11:14.456Z,18.33
2023-08-30T18:13:43.300Z,18.24
2023-08-30T18:16:13.166Z,18.19
2023-08-30T18:18:42.001Z,18.09
2023-08-30T18:21:13.134Z,18.09
2023-08-30T18:23:43.647Z,18.15
2023-08-30T18:26:12.574Z,18.03
2023-08-30T18:28:40.939Z,17.61
2023-08-30T18:31:09.681Z,17.22
2023-08-30T18:33:37.849Z,17.03
2023-08-30T18:36:07.689Z,16.53
2023-08-30T18:38:39.522Z,16.25
2023-08-30T18:41:16.893Z,16.07
2023-08-30T18:43:46.327Z,15.79
2023-08-30T18:46:19.715Z,15.71
2023-08-30T18:48:49.139Z,15.59
2023-08-30T18:51:18.134Z,15.44
2023-08-30T18:53:48.226Z,15.26
2023-08-30T18:56:17.469Z,15.24
2023-08-30T18:58:46.027Z,15.09
2023-08-30T19:01:16.760Z,15.02
2023-08-30T19:03:47.583Z,14.98
2023-08-30T19:06:17.449Z,14.90
2023-08-30T19:08:49.428Z,14.83
2023-08-30T19:11:18.396Z,14.76
2023-08-30T19:13:48.144Z,14.67
2023-08-30T19:16:18.552Z,14.60
2023-08-30T19:18:47.462Z,14.54
2023-08-30T19:21:16.049Z,14.43
2023-08-30T19:23:45.682Z,14.27
2023-08-30T19:26:15.453Z,14.15
2023-08-30T19:28:43.969Z,14.03
2023-08-30T19:31:12.720Z,13.98
2023-08-30T19:33:43.240Z,13.95
2023-08-30T19:36:11.834Z,13.93
2023-08-30T19:38:40.161Z,13.94
2023-08-30T19:41:08.773Z,13.97
2023-08-30T19:43:38.533Z,14.01
2023-08-30T19:46:08.524Z,14.08
2023-08-30T19:48:37.047Z,14.13
2023-08-30T19:51:06.487Z,14.18
2023-08-30T19:53:34.868Z,14.23
2023-08-30T19:56:07.145Z,14.26
2023-08-30T19:58:35.764Z,14.41
2023-08-30T20:01:07.184Z,14.33
2023-08-30T20:03:36.168Z,14.28
2023-08-30T20:06:05.510Z,14.21
2023-08-30T20:08:34.240Z,14.16
2023-08-30T20:11:04.495Z,14.22
2023-08-30T20:13:33.207Z,14.25
2023-08-30T20:16:03.573Z,14.32
2023-08-30T20:18:34.091Z,14.34
2023-08-30T20:21:05.792Z,14.31
2023-08-30T20:23:34.289Z,14.28
2023-08-30T20:26:02.593Z,14.33
2023-08-30T20:28:31.721Z,14.40
2023-08-30T20:31:02.432Z,14.42
2023-08-30T20:33:31.762Z,14.41
2023-08-30T20:36:06.268Z,14.32
2023-08-30T20:38:36.232Z,14.28
2023-08-30T20:41:06.640Z,14.24
2023-08-30T20:43:35.213Z,14.23
2023-08-30T20:46:04.504Z,14.12
2023-08-30T20:48:33.793Z,13.99
2023-08-30T20:51:06.044Z,13.99
2023-08-30T20:53:36.817Z,14.00
2023-08-30T20:56:08.414Z,13.89
2023-08-30T20:58:42.439Z,13.94
2023-08-30T21:01:11.002Z,13.93
2023-08-30T21:03:40.205Z,13.95
2023-08-30T21:06:10.403Z,13.96
2023-08-30T21:08:39.753Z,13.96
2023-08-30T21:11:11.281Z,13.94
2023-08-30T21:13:39.588Z,13.87
2023-08-30T21:16:08.451Z,13.84
2023-08-30T21:18:36.849Z,13.88
2023-08-30T21:21:05.503Z,13.88
2023-08-30T21:23:35.225Z,13.79
2023-08-30T21:26:04.353Z,13.71
2023-08-30T21:28:33.584Z,13.62
2023-08-30T21:31:03.548Z,13.53
2023-08-30T21:33:31.973Z,13.45
2023-08-30T21:36:00.907Z,13.41
2023-08-30T21:38:29.373Z,13.30
2023-08-30T21:40:59.695Z,13.23
2023-08-30T21:43:28.360Z,13.11
2023-08-30T21:45:56.712Z,13.06
2023-08-30T21:48:24.979Z,13.02
2023-08-30T21:50:53.351Z,12.99
2023-08-30T21:53:21.541Z,13.02
2023-08-30T21:55:49.787Z,13.03
2023-08-30T21:58:19.742Z,13.06
2023-08-30T22:00:48.179Z,13.12
2023-08-30T22:03:16.676Z,13.19
2023-08-30T22:05:45.521Z,13.28
2023-08-30T22:08:14.541Z,13.34
2023-08-30T22:10:43.315Z,13.45
2023-08-30T22:13:12.928Z,13.47
2023-08-30T22:15:42.800Z,13.51
2023-08-30T22:18:11.211Z,13.53
2023-08-30T22:20:39.757Z,13.52
2023-08-30T22:23:08.420Z,13.54
2023-08-30T22:25:40.209Z,13.55
2023-08-30T22:28:08.742Z,13.55
2023-08-30T22:30:38.863Z,13.59
2023-08-30T22:33:11.157Z,13.58
2023-08-30T22:35:40.033Z,13.58
2023-08-30T22:38:08.575Z,13.58
2023-08-30T22:40:36.864Z,13.59
2023-08-30T22:43:05.931Z,13.58
2023-08-30T22:45:34.451Z,13.54
2023-08-30T22:48:02.899Z,13.50
2023-08-30T22:50:32.643Z,13.53
2023-08-30T22:53:03.216Z,13.45
2023-08-30T22:55:32.440Z,13.42
2023-08-30T22:58:04.632Z,13.40
2023-08-30T23:00:37.826Z,13.34
2023-08-30T23:03:11.412Z,13.44
2023-08-30T23:05:43.522Z,13.30
2023-08-30T23:08:12.476Z,13.23
2023-08-30T23:10:40.869Z,13.21
2023-08-30T23:13:09.491Z,13.16
2023-08-30T23:15:38.523Z,13.10
2023-08-30T23:18:08.504Z,13.03
2023-08-30T23:20:37.243Z,12.96
2023-08-30T23:23:11.079Z,12.94
2023-08-30T23:25:40.465Z,12.93
2023-08-30T23:28:08.929Z,12.96
2023-08-30T23:30:37.596Z,13.01
2023-08-30T23:33:06.753Z,13.04
2023-08-30T23:35:35.555Z,13.06
2023-08-30T23:38:04.228Z,13.07
2023-08-30T23:40:34.257Z,13.07
2023-08-30T23:43:03.382Z,13.05
2023-08-30T23:45:32.641Z,13.00
2023-08-30T23:48:01.264Z,12.97
2023-08-30T23:50:31.825Z,12.91
2023-08-30T23:53:00.759Z,12.86
2023-08-30T23:55:29.336Z,12.79
2023-08-30T23:58:00.120Z,12.77
